sensor_id;sensor_type;location;lat;lon;timestamp;pressure;altitude;pressure_sealevel;temperature;humidity
62791;BME280;48830;53.426;10.300;2023-03-14T00:00:11;98800.16;;;12.00;100.00
62791;BME280;48830;53.426;10.300;2023-03-14T00:02:37;98810.47;;;12.00;100.00
62791;BME280;48830;53.426;10.300;2023-03-14T00:05:03;98826.00;;;11.97;100.00
62791;BME280;48830;53.426;10.300;2023-03-14T00:07:38;98839.81;;;11.93;100.00
62791;BME280;48830;53.426;10.300;2023-03-14T00:10:07;98849.31;;;11.89;100.00
62791;BME280;48830;53.426;10.300;2023-03-14T00:12:32;98856.19;;;11.90;100.00
62791;BME280;48830;53.426;10.300;2023-03-14T00:14:58;98850.94;;;11.93;100.00
62791;BME280;48830;53.426;10.300;2023-03-14T00:17:26;98860.53;;;11.87;100.00
62791;BME280;48830;53.426;10.300;2023-03-14T00:19:52;98850.28;;;11.83;100.00
62791;BME280;48830;53.426;10.300;2023-03-14T00:22:19;98850.22;;;11.87;100.00
62791;BME280;48830;53.426;10.300;2023-03-14T00:24:45;98852.06;;;11.81;100.00
62791;BME280;48830;53.426;10.300;2023-03-14T00:27:11;98835.03;;;11.73;100.00
62791;BME280;48830;53.426;10.300;2023-03-14T00:29:37;98829.94;;;11.71;100.00
62791;BME280;48830;53.426;10.300;2023-03-14T00:32:03;98828.28;;;11.69;100.00
62791;BME280;48830;53.426;10.300;2023-03-14T00:34:29;98827.31;;;11.74;100.00
62791;BME280;48830;53.426;10.300;2023-03-14T00:36:55;98830.00;;;11.67;100.00
62791;BME280;48830;53.426;10.300;2023-03-14T00:39:20;98823.13;;;11.67;100.00
62791;BME280;48830;53.426;10.300;2023-03-14T00:41:45;98819.75;;;11.65;100.00
62791;BME280;48830;53.426;10.300;2023-03-14T00:44:11;98806.22;;;11.57;100.00
62791;BME280;48830;53.426;10.300;2023-03-14T00:46:37;98795.97;;;11.54;100.00
62791;BME280;48830;53.426;10.300;2023-03-14T00:49:02;98794.41;;;11.47;100.00
62791;BME280;48830;53.426;10.300;2023-03-14T00:51:30;98782.66;;;11.34;100.00
62791;BME280;48830;53.426;10.300;2023-03-14T00:53:55;98756.91;;;11.35;100.00
62791;BME280;48830;53.426;10.300;2023-03-14T00:56:21;98753.50;;;11.35;100.00
62791;BME280;48830;53.426;10.300;2023-03-14T00:58:47;98759.59;;;11.29;100.00
62791;BME280;48830;53.426;10.300;2023-03-14T01:01:15;98774.28;;;11.24;100.00
62791;BME280;48830;53.426;10.300;2023-03-14T01:03:41;98789.81;;;11.19;100.00
62791;BME280;48830;53.426;10.300;2023-03-14T01:06:18;98809.63;;;11.13;100.00
62791;BME280;48830;53.426;10.300;2023-03-14T01:08:44;98820.88;;;11.07;100.00
62791;BME280;48830;53.426;10.300;2023-03-14T01:11:15;98823.38;;;11.12;100.00
62791;BME280;48830;53.426;10.300;2023-03-14T01:13:42;98827.78;;;11.05;100.00
62791;BME280;48830;53.426;10.300;2023-03-14T01:16:09;98825.34;;;10.99;100.00
62791;BME280;48830;53.426;10.300;2023-03-14T01:18:36;98808.84;;;11.11;100.00
62791;BME280;48830;53.426;10.300;2023-03-14T01:21:07;98807.94;;;11.12;100.00
62791;BME280;48830;53.426;10.300;2023-03-14T01:23:34;98803.66;;;11.12;100.00
62791;BME280;48830;53.426;10.300;2023-03-14T01:25:59;98803.53;;;11.18;100.00
62791;BME280;48830;53.426;10.300;2023-03-14T01:28:25;98800.13;;;11.19;100.00
62791;BME280;48830;53.426;10.300;2023-03-14T01:30:50;98795.69;;;11.24;100.00
62791;BME280;48830;53.426;10.300;2023-03-14T01:33:16;98787.06;;;11.28;100.00
62791;BME280;48830;53.426;10.300;2023-03-14T01:35:43;98785.41;;;11.26;100.00
62791;BME280;48830;53.426;10.300;2023-03-14T01:38:08;98773.31;;;11.31;100.00
62791;BME280;48830;53.426;10.300;2023-03-14T01:40:41;98767.31;;;11.30;100.00
62791;BME280;48830;53.426;10.300;2023-03-14T01:43:14;98767.19;;;11.37;100.00
62791;BME280;48830;53.426;10.300;2023-03-14T01:46:12;98783.44;;;11.39;100.00
62791;BME280;48830;53.426;10.300;2023-03-14T01:48:59;98780.81;;;11.42;100.00
62791;BME280;48830;53.426;10.300;2023-03-14T01:51:31;98767.84;;;11.46;100.00
62791;BME280;48830;53.426;10.300;2023-03-14T01:59:44;98759.13;;;11.53;100.00
62791;BME280;48830;53.426;10.300;2023-03-14T02:02:12;98751.44;;;11.52;100.00
62791;BME280;48830;53.426;10.300;2023-03-14T02:04:38;98743.72;;;11.52;100.00
62791;BME280;48830;53.426;10.300;2023-03-14T02:07:13;98742.22;;;11.42;100.00
62791;BME280;48830;53.426;10.300;2023-03-14T02:09:46;98727.72;;;11.38;100.00
62791;BME280;48830;53.426;10.300;2023-03-14T02:12:20;98736.44;;;11.30;100.00
62791;BME280;48830;53.426;10.300;2023-03-14T02:14:51;98726.22;;;11.27;100.00
62791;BME280;48830;53.426;10.300;2023-03-14T02:17:35;98703.16;;;11.23;100.00
62791;BME280;48830;53.426;10.300;2023-03-14T02:20:11;98688.56;;;11.25;100.00
62791;BME280;48830;53.426;10.300;2023-03-14T02:22:42;98678.38;;;11.20;100.00
62791;BME280;48830;53.426;10.300;2023-03-14T02:27:42;98679.13;;;11.24;100.00
62791;BME280;48830;53.426;10.300;2023-03-14T02:30:18;98682.97;;;11.03;100.00
62791;BME280;48830;53.426;10.300;2023-03-14T02:32:47;98681.03;;;11.16;100.00
62791;BME280;48830;53.426;10.300;2023-03-14T02:35:18;98686.31;;;11.10;100.00
62791;BME280;48830;53.426;10.300;2023-03-14T02:37:59;98680.41;;;11.04;100.00
62791;BME280;48830;53.426;10.300;2023-03-14T02:40:31;98690.16;;;10.89;100.00
62791;BME280;48830;53.426;10.300;2023-03-14T02:42:57;98697.78;;;10.93;100.00
62791;BME280;48830;53.426;10.300;2023-03-14T02:47:54;98720.25;;;10.82;100.00
62791;BME280;48830;53.426;10.300;2023-03-14T02:50:26;98723.66;;;10.84;100.00
62791;BME280;48830;53.426;10.300;2023-03-14T02:52:55;98717.53;;;10.90;100.00
62791;BME280;48830;53.426;10.300;2023-03-14T02:55:21;98724.31;;;10.92;100.00
62791;BME280;48830;53.426;10.300;2023-03-14T02:57:47;98728.63;;;10.92;100.00
62791;BME280;48830;53.426;10.300;2023-03-14T03:00:13;98728.69;;;10.89;100.00
62791;BME280;48830;53.426;10.300;2023-03-14T03:02:40;98717.53;;;10.90;100.00
62791;BME280;48830;53.426;10.300;2023-03-14T03:05:05;98710.00;;;10.81;100.00
62791;BME280;48830;53.426;10.300;2023-03-14T03:07:31;98717.63;;;10.85;100.00
62791;BME280;48830;53.426;10.300;2023-03-14T03:09:57;98714.16;;;10.86;100.00
62791;BME280;48830;53.426;10.300;2023-03-14T03:12:22;98715.81;;;10.90;100.00
62791;BME280;48830;53.426;10.300;2023-03-14T03:14:48;98710.66;;;10.90;100.00
62791;BME280;48830;53.426;10.300;2023-03-14T03:17:14;98706.38;;;10.91;100.00
62791;BME280;48830;53.426;10.300;2023-03-14T03:19:40;98701.16;;;10.95;100.00
62791;BME280;48830;53.426;10.300;2023-03-14T03:22:05;98694.53;;;10.84;100.00
62791;BME280;48830;53.426;10.300;2023-03-14T03:24:31;98685.00;;;10.89;100.00
62791;BME280;48830;53.426;10.300;2023-03-14T03:26:56;98680.78;;;10.85;100.00
62791;BME280;48830;53.426;10.300;2023-03-14T03:29:22;98675.63;;;10.86;100.00
62791;BME280;48830;53.426;10.300;2023-03-14T03:31:48;98675.53;;;10.91;100.00
62791;BME280;48830;53.426;10.300;2023-03-14T03:34:14;98678.19;;;10.88;100.00
62791;BME280;48830;53.426;10.300;2023-03-14T03:36:40;98663.50;;;10.93;100.00
62791;BME280;48830;53.426;10.300;2023-03-14T03:39:06;98675.44;;;10.95;100.00
62791;BME280;48830;53.426;10.300;2023-03-14T03:41:32;98671.22;;;10.93;100.00
62791;BME280;48830;53.426;10.300;2023-03-14T03:43:58;98661.69;;;10.98;100.00
62791;BME280;48830;53.426;10.300;2023-03-14T03:46:24;98670.34;;;10.94;100.00
62791;BME280;48830;53.426;10.300;2023-03-14T03:48:55;98663.56;;;10.90;100.00
62791;BME280;48830;53.426;10.300;2023-03-14T03:51:20;98662.75;;;10.88;100.00
62791;BME280;48830;53.426;10.300;2023-03-14T03:53:46;98654.09;;;10.92;100.00
62791;BME280;48830;53.426;10.300;2023-03-14T03:56:16;98660.19;;;10.88;100.00
62791;BME280;48830;53.426;10.300;2023-03-14T03:58:43;98658.47;;;10.87;100.00
62791;BME280;48830;53.426;10.300;2023-03-14T04:01:09;98657.50;;;10.94;100.00
62791;BME280;48830;53.426;10.300;2023-03-14T04:03:36;98649.78;;;10.94;100.00
62791;BME280;48830;53.426;10.300;2023-03-14T04:06:08;98647.34;;;10.88;100.00
62791;BME280;48830;53.426;10.300;2023-03-14T04:08:37;98641.13;;;10.98;100.00
62791;BME280;48830;53.426;10.300;2023-03-14T04:11:03;98651.41;;;10.98;100.00
62791;BME280;48830;53.426;10.300;2023-03-14T04:13:47;98648.84;;;10.96;100.00
62791;BME280;48830;53.426;10.300;2023-03-14T04:16:16;98651.47;;;10.95;100.00
62791;BME280;48830;53.426;10.300;2023-03-14T04:18:42;98638.66;;;10.93;100.00
62791;BME280;48830;53.426;10.300;2023-03-14T04:21:08;98635.25;;;10.91;100.00
62791;BME280;48830;53.426;10.300;2023-03-14T04:23:43;98629.22;;;10.94;100.00
62791;BME280;48830;53.426;10.300;2023-03-14T04:26:09;98632.72;;;10.90;100.00
62791;BME280;48830;53.426;10.300;2023-03-14T04:28:34;98630.56;;;11.10;100.00
62791;BME280;48830;53.426;10.300;2023-03-14T04:31:20;98627.91;;;11.15;100.00
62791;BME280;48830;53.426;10.300;2023-03-14T04:33:47;98616.50;;;11.26;100.00
62791;BME280;48830;53.426;10.300;2023-03-14T04:36:15;98631.84;;;11.29;100.00
62791;BME280;48830;53.426;10.300;2023-03-14T04:38:41;98612.06;;;11.33;100.00
62791;BME280;48830;53.426;10.300;2023-03-14T04:41:08;98621.44;;;11.36;100.00
62791;BME280;48830;53.426;10.300;2023-03-14T04:43:34;98612.72;;;11.43;100.00
62791;BME280;48830;53.426;10.300;2023-03-14T04:46:06;98608.50;;;11.39;100.00
62791;BME280;48830;53.426;10.300;2023-03-14T04:48:32;98597.13;;;11.49;100.00
62791;BME280;48830;53.426;10.300;2023-03-14T04:50:58;98596.25;;;11.50;100.00
62791;BME280;48830;53.426;10.300;2023-03-14T04:53:25;98594.44;;;11.53;100.00
62791;BME280;48830;53.426;10.300;2023-03-14T04:55:55;98603.06;;;11.52;100.00
62791;BME280;48830;53.426;10.300;2023-03-14T04:58:22;98590.94;;;11.57;100.00
62791;BME280;48830;53.426;10.300;2023-03-14T05:00:50;98595.34;;;11.51;100.00
62791;BME280;48830;53.426;10.300;2023-03-14T05:03:35;98599.59;;;11.53;100.00
62791;BME280;48830;53.426;10.300;2023-03-14T05:06:12;98594.34;;;11.56;100.00
62791;BME280;48830;53.426;10.300;2023-03-14T05:08:57;98592.53;;;11.62;100.00
62791;BME280;48830;53.426;10.300;2023-03-14T05:11:36;98582.31;;;11.59;100.00
62791;BME280;48830;53.426;10.300;2023-03-14T05:14:29;98582.31;;;11.59;100.00
62791;BME280;48830;53.426;10.300;2023-03-14T05:17:07;98584.78;;;11.63;100.00
62791;BME280;48830;53.426;10.300;2023-03-14T05:19:51;98587.56;;;11.54;100.00
62791;BME280;48830;53.426;10.300;2023-03-14T05:22:19;98588.50;;;11.50;100.00
62791;BME280;48830;53.426;10.300;2023-03-14T05:25:04;98588.47;;;11.53;100.00
62791;BME280;48830;53.426;10.300;2023-03-14T05:27:53;98584.22;;;11.50;100.00
62791;BME280;48830;53.426;10.300;2023-03-14T05:30:30;98578.31;;;11.47;100.00
62791;BME280;48830;53.426;10.300;2023-03-14T05:33:12;98573.22;;;11.44;100.00
62791;BME280;48830;53.426;10.300;2023-03-14T05:35:49;98573.44;;;11.35;100.00
62791;BME280;48830;53.426;10.300;2023-03-14T05:38:33;98569.13;;;11.37;100.00
62791;BME280;48830;53.426;10.300;2023-03-14T05:41:24;98572.59;;;11.36;100.00
62791;BME280;48830;53.426;10.300;2023-03-14T05:44:22;98569.03;;;11.40;100.00
62791;BME280;48830;53.426;10.300;2023-03-14T05:47:07;98567.25;;;11.43;100.00
62791;BME280;48830;53.426;10.300;2023-03-14T05:49:51;98572.50;;;11.39;100.00
62791;BME280;48830;53.426;10.300;2023-03-14T05:52:35;98588.72;;;11.41;100.00
62791;BME280;48830;53.426;10.300;2023-03-14T05:55:26;98576.69;;;11.43;100.00
62791;BME280;48830;53.426;10.300;2023-03-14T05:58:09;98564.56;;;11.48;100.00
62791;BME280;48830;53.426;10.300;2023-03-14T06:00:49;98574.19;;;11.40;100.00
62791;BME280;48830;53.426;10.300;2023-03-14T06:03:30;98561.31;;;11.40;100.00
62791;BME280;48830;53.426;10.300;2023-03-14T06:05:56;98553.59;;;11.40;100.00
62791;BME280;48830;53.426;10.300;2023-03-14T06:08:23;98563.03;;;11.39;100.00
62791;BME280;48830;53.426;10.300;2023-03-14T06:10:50;98558.84;;;11.35;100.00
62791;BME280;48830;53.426;10.300;2023-03-14T06:13:17;98575.06;;;11.39;100.00
62791;BME280;48830;53.426;10.300;2023-03-14T06:15:43;98568.16;;;11.41;100.00
62791;BME280;48830;53.426;10.300;2023-03-14T06:18:08;98581.88;;;11.41;100.00
62791;BME280;48830;53.426;10.300;2023-03-14T06:20:38;98570.84;;;11.36;100.00
62791;BME280;48830;53.426;10.300;2023-03-14T06:23:08;98575.13;;;11.37;100.00
62791;BME280;48830;53.426;10.300;2023-03-14T06:25:35;98573.38;;;11.38;100.00
62791;BME280;48830;53.426;10.300;2023-03-14T06:28:01;98571.59;;;11.40;100.00
62791;BME280;48830;53.426;10.300;2023-03-14T06:30:26;98582.13;;;11.30;100.00
62791;BME280;48830;53.426;10.300;2023-03-14T06:32:52;98581.34;;;11.27;100.00
62791;BME280;48830;53.426;10.300;2023-03-14T06:35:21;98584.75;;;11.27;100.00
62791;BME280;48830;53.426;10.300;2023-03-14T06:37:47;98590.69;;;11.29;100.00
62791;BME280;48830;53.426;10.300;2023-03-14T06:40:13;98586.53;;;11.25;100.00
62791;BME280;48830;53.426;10.300;2023-03-14T06:42:49;98595.09;;;11.24;100.00
62791;BME280;48830;53.426;10.300;2023-03-14T06:45:16;98601.81;;;11.32;100.00
62791;BME280;48830;53.426;10.300;2023-03-14T06:47:42;98612.31;;;11.22;100.00
62791;BME280;48830;53.426;10.300;2023-03-14T06:50:09;98607.97;;;11.24;100.00
62791;BME280;48830;53.426;10.300;2023-03-14T06:52:35;98612.25;;;11.24;100.00
62791;BME280;48830;53.426;10.300;2023-03-14T06:55:01;98605.28;;;11.30;100.00
62791;BME280;48830;53.426;10.300;2023-03-14T06:57:28;98603.50;;;11.33;100.00
62791;BME280;48830;53.426;10.300;2023-03-14T06:59:53;98607.72;;;11.35;100.00
62791;BME280;48830;53.426;10.300;2023-03-14T07:02:19;98615.75;;;11.21;100.00
62791;BME280;48830;53.426;10.300;2023-03-14T07:04:44;98626.09;;;11.20;100.00
62791;BME280;48830;53.426;10.300;2023-03-14T07:07:10;98638.13;;;11.18;100.00
62791;BME280;48830;53.426;10.300;2023-03-14T07:09:35;98648.34;;;11.21;100.00
62791;BME280;48830;53.426;10.300;2023-03-14T07:12:02;98643.13;;;11.25;100.00
62791;BME280;48830;53.426;10.300;2023-03-14T07:14:29;98642.13;;;11.29;100.00
62791;BME280;48830;53.426;10.300;2023-03-14T07:16:55;98635.31;;;11.28;100.00
62791;BME280;48830;53.426;10.300;2023-03-14T07:19:21;98636.16;;;11.29;100.00
62791;BME280;48830;53.426;10.300;2023-03-14T07:21:46;98655.88;;;11.28;100.00
62791;BME280;48830;53.426;10.300;2023-03-14T07:24:13;98651.00;;;11.16;100.00
62791;BME280;48830;53.426;10.300;2023-03-14T07:26:39;98643.13;;;11.24;100.00
62791;BME280;48830;53.426;10.300;2023-03-14T07:29:05;98642.38;;;11.20;100.00
62791;BME280;48830;53.426;10.300;2023-03-14T07:31:31;98643.06;;;11.27;100.00
62791;BME280;48830;53.426;10.300;2023-03-14T07:33:56;98657.72;;;11.23;100.00
62791;BME280;48830;53.426;10.300;2023-03-14T07:36:25;98652.13;;;11.43;100.00
62791;BME280;48830;53.426;10.300;2023-03-14T07:38:51;98655.41;;;11.50;100.00
62791;BME280;48830;53.426;10.300;2023-03-14T07:41:32;98662.38;;;11.45;100.00
62791;BME280;48830;53.426;10.300;2023-03-14T07:44:18;98653.53;;;11.58;100.00
62791;BME280;48830;53.426;10.300;2023-03-14T07:46:43;98655.06;;;11.65;100.00
62791;BME280;48830;53.426;10.300;2023-03-14T07:49:08;98660.34;;;11.59;100.00
62791;BME280;48830;53.426;10.300;2023-03-14T07:51:34;98652.72;;;11.54;100.00
62791;BME280;48830;53.426;10.300;2023-03-14T07:54:00;98658.53;;;11.64;100.00
62791;BME280;48830;53.426;10.300;2023-03-14T07:56:25;98662.50;;;11.77;100.00
62791;BME280;48830;53.426;10.300;2023-03-14T07:58:51;98660.25;;;11.62;100.00
62791;BME280;48830;53.426;10.300;2023-03-14T08:01:16;98654.84;;;11.74;100.00
62791;BME280;48830;53.426;10.300;2023-03-14T08:03:41;98657.22;;;11.85;100.00
62791;BME280;48830;53.426;10.300;2023-03-14T08:06:07;98655.38;;;11.90;100.00
62791;BME280;48830;53.426;10.300;2023-03-14T08:08:32;98666.84;;;11.75;100.00
62791;BME280;48830;53.426;10.300;2023-03-14T08:11:03;98658.78;;;11.91;100.00
62791;BME280;48830;53.426;10.300;2023-03-14T08:13:28;98666.91;;;11.72;100.00
62791;BME280;48830;53.426;10.300;2023-03-14T08:15:54;98666.72;;;11.81;100.00
62791;BME280;48830;53.426;10.300;2023-03-14T08:18:19;98662.78;;;11.65;100.00
62791;BME280;48830;53.426;10.300;2023-03-14T08:20:45;98656.47;;;11.78;100.00
62791;BME280;48830;53.426;10.300;2023-03-14T08:23:10;98653.22;;;11.70;100.00
62791;BME280;48830;53.426;10.300;2023-03-14T08:25:37;98655.13;;;11.62;100.00
62791;BME280;48830;53.426;10.300;2023-03-14T08:28:03;98649.13;;;11.63;100.00
62791;BME280;48830;53.426;10.300;2023-03-14T08:30:29;98653.78;;;11.85;100.00
62791;BME280;48830;53.426;10.300;2023-03-14T08:32:57;98643.97;;;12.00;100.00
62791;BME280;48830;53.426;10.300;2023-03-14T08:35:24;98640.63;;;12.29;100.00
62791;BME280;48830;53.426;10.300;2023-03-14T08:37:50;98646.28;;;12.44;100.00
62791;BME280;48830;53.426;10.300;2023-03-14T08:40:17;98649.53;;;13.11;100.00
62791;BME280;48830;53.426;10.300;2023-03-14T08:42:44;98635.66;;;13.15;100.00
62791;BME280;48830;53.426;10.300;2023-03-14T08:45:14;98643.84;;;13.31;100.00
62791;BME280;48830;53.426;10.300;2023-03-14T08:47:41;98637.63;;;13.07;100.00
62791;BME280;48830;53.426;10.300;2023-03-14T08:50:08;98629.13;;;13.33;100.00
62791;BME280;48830;53.426;10.300;2023-03-14T08:52:34;98633.28;;;13.07;100.00
62791;BME280;48830;53.426;10.300;2023-03-14T08:55:00;98627.72;;;12.93;100.00
62791;BME280;48830;53.426;10.300;2023-03-14T08:57:25;98623.66;;;12.84;100.00
62791;BME280;48830;53.426;10.300;2023-03-14T08:59:54;98617.47;;;12.90;100.00
62791;BME280;48830;53.426;10.300;2023-03-14T09:02:20;98623.34;;;12.95;100.00
62791;BME280;48830;53.426;10.300;2023-03-14T09:04:46;98631.56;;;13.37;99.26
62791;BME280;48830;53.426;10.300;2023-03-14T09:07:11;98637.84;;;12.99;99.86
62791;BME280;48830;53.426;10.300;2023-03-14T09:09:37;98624.09;;;13.28;96.28
62791;BME280;48830;53.426;10.300;2023-03-14T09:12:02;98618.91;;;13.58;95.56
62791;BME280;48830;53.426;10.300;2023-03-14T09:14:28;98624.88;;;13.86;95.96
62791;BME280;48830;53.426;10.300;2023-03-14T09:16:54;98621.00;;;14.00;95.92
62791;BME280;48830;53.426;10.300;2023-03-14T09:19:20;98627.22;;;13.66;95.36
62791;BME280;48830;53.426;10.300;2023-03-14T09:21:45;98626.56;;;13.33;95.21
62791;BME280;48830;53.426;10.300;2023-03-14T09:24:11;98632.38;;;13.39;95.79
62791;BME280;48830;53.426;10.300;2023-03-14T09:26:36;98631.97;;;13.25;95.32
62791;BME280;48830;53.426;10.300;2023-03-14T09:29:02;98620.75;;;13.81;91.65
62791;BME280;48830;53.426;10.300;2023-03-14T09:31:28;98622.97;;;13.91;91.09
62791;BME280;48830;53.426;10.300;2023-03-14T09:33:55;98620.00;;;13.77;92.85
62791;BME280;48830;53.426;10.300;2023-03-14T09:36:20;98620.75;;;13.26;94.16
62791;BME280;48830;53.426;10.300;2023-03-14T09:38:46;98622.38;;;13.57;94.93
62791;BME280;48830;53.426;10.300;2023-03-14T09:41:15;98619.28;;;13.16;94.24
62791;BME280;48830;53.426;10.300;2023-03-14T09:43:42;98632.84;;;13.24;95.14
62791;BME280;48830;53.426;10.300;2023-03-14T09:46:10;98614.50;;;13.33;95.79
62791;BME280;48830;53.426;10.300;2023-03-14T09:48:36;98630.09;;;13.30;94.43
62791;BME280;48830;53.426;10.300;2023-03-14T09:51:12;98633.63;;;13.26;95.14
62791;BME280;48830;53.426;10.300;2023-03-14T09:53:41;98619.03;;;13.53;93.39
62791;BME280;48830;53.426;10.300;2023-03-14T09:56:13;98614.38;;;13.91;91.28
62791;BME280;48830;53.426;10.300;2023-03-14T09:58:41;98616.03;;;13.67;92.57
62791;BME280;48830;53.426;10.300;2023-03-14T10:01:13;98630.66;;;13.66;92.34
62791;BME280;48830;53.426;10.300;2023-03-14T10:03:41;98630.75;;;13.37;94.26
62791;BME280;48830;53.426;10.300;2023-03-14T10:06:13;98620.03;;;13.21;95.22
62791;BME280;48830;53.426;10.300;2023-03-14T10:08:41;98626.03;;;13.22;95.42
62791;BME280;48830;53.426;10.300;2023-03-14T10:11:15;98623.75;;;13.11;97.93
62791;BME280;48830;53.426;10.300;2023-03-14T10:14:28;98632.88;;;13.23;99.69
62791;BME280;48830;53.426;10.300;2023-03-14T10:16:48;98655.13;;;12.96;100.00
62791;BME280;48830;53.426;10.300;2023-03-14T10:19:16;98685.38;;;12.58;100.00
62791;BME280;48830;53.426;10.300;2023-03-14T10:21:53;98653.56;;;12.26;100.00
62791;BME280;48830;53.426;10.300;2023-03-14T10:24:45;98697.16;;;12.00;100.00
62791;BME280;48830;53.426;10.300;2023-03-14T10:27:23;98728.75;;;11.29;100.00
62791;BME280;48830;53.426;10.300;2023-03-14T10:30:00;98738.97;;;10.89;100.00
62791;BME280;48830;53.426;10.300;2023-03-14T10:32:33;98745.66;;;10.99;100.00
62791;BME280;48830;53.426;10.300;2023-03-14T10:37:52;98745.81;;;10.42;100.00
62791;BME280;48830;53.426;10.300;2023-03-14T10:40:27;98767.56;;;10.18;100.00
62791;BME280;48830;53.426;10.300;2023-03-14T10:42:53;98776.22;;;10.11;100.00
62791;BME280;48830;53.426;10.300;2023-03-14T10:45:38;98785.47;;;10.22;100.00
62791;BME280;48830;53.426;10.300;2023-03-14T10:51:17;98803.09;;;9.87;100.00
62791;BME280;48830;53.426;10.300;2023-03-14T10:53:58;98815.84;;;9.93;100.00
62791;BME280;48830;53.426;10.300;2023-03-14T10:56:25;98825.44;;;9.79;100.00
62791;BME280;48830;53.426;10.300;2023-03-14T10:58:53;98829.06;;;9.64;100.00
62791;BME280;48830;53.426;10.300;2023-03-14T11:01:36;98841.25;;;9.45;100.00
62791;BME280;48830;53.426;10.300;2023-03-14T11:07:21;98883.50;;;9.07;100.00
62791;BME280;48830;53.426;10.300;2023-03-14T11:15:21;98916.38;;;8.56;100.00
62791;BME280;48830;53.426;10.300;2023-03-14T11:23:28;98964.47;;;7.87;100.00
62791;BME280;48830;53.426;10.300;2023-03-14T11:28:58;98979.00;;;7.67;100.00
62791;BME280;48830;53.426;10.300;2023-03-14T11:31:29;98991.81;;;7.54;100.00
62791;BME280;48830;53.426;10.300;2023-03-14T11:36:44;99030.16;;;7.22;100.00
62791;BME280;48830;53.426;10.300;2023-03-14T11:39:15;99038.66;;;6.98;100.00
62791;BME280;48830;53.426;10.300;2023-03-14T11:41:45;99056.47;;;6.68;100.00
62791;BME280;48830;53.426;10.300;2023-03-14T11:44:19;99068.41;;;6.78;100.00
62791;BME280;48830;53.426;10.300;2023-03-14T11:47:06;99082.84;;;6.70;100.00
62791;BME280;48830;53.426;10.300;2023-03-14T11:49:38;99084.53;;;6.57;100.00
62791;BME280;48830;53.426;10.300;2023-03-14T11:52:10;99111.78;;;6.64;100.00
62791;BME280;48830;53.426;10.300;2023-03-14T11:54:42;99115.94;;;6.48;100.00
62791;BME280;48830;53.426;10.300;2023-03-14T11:57:19;99126.25;;;6.64;100.00
62791;BME280;48830;53.426;10.300;2023-03-14T12:00:32;99127.03;;;6.55;100.00
62791;BME280;48830;53.426;10.300;2023-03-14T12:08:15;99158.53;;;6.55;100.00
62791;BME280;48830;53.426;10.300;2023-03-14T12:10:54;99165.34;;;6.56;100.00
62791;BME280;48830;53.426;10.300;2023-03-14T12:13:21;99163.66;;;6.62;100.00
62791;BME280;48830;53.426;10.300;2023-03-14T12:15:58;99186.56;;;6.49;100.00
62791;BME280;48830;53.426;10.300;2023-03-14T12:20:58;99192.56;;;6.54;100.00
62791;BME280;48830;53.426;10.300;2023-03-14T12:23:26;99197.63;;;6.48;100.00
62791;BME280;48830;53.426;10.300;2023-03-14T12:28:36;99218.06;;;6.48;100.00
62791;BME280;48830;53.426;10.300;2023-03-14T12:34:02;99240.06;;;6.31;100.00
62791;BME280;48830;53.426;10.300;2023-03-14T12:37:05;99239.16;;;6.26;100.00
62791;BME280;48830;53.426;10.300;2023-03-14T12:39:37;99251.13;;;6.33;100.00
62791;BME280;48830;53.426;10.300;2023-03-14T12:45:14;99253.81;;;6.54;100.00
62791;BME280;48830;53.426;10.300;2023-03-14T12:47:43;99257.19;;;6.50;100.00
62791;BME280;48830;53.426;10.300;2023-03-14T12:50:18;99282.78;;;6.56;100.00
62791;BME280;48830;53.426;10.300;2023-03-14T12:53:13;99281.91;;;6.54;100.00
62791;BME280;48830;53.426;10.300;2023-03-14T12:59:17;99298.16;;;6.63;100.00
62791;BME280;48830;53.426;10.300;2023-03-14T13:07:36;99316.97;;;6.83;100.00
62791;BME280;48830;53.426;10.300;2023-03-14T13:10:25;99324.56;;;6.68;100.00
62791;BME280;48830;53.426;10.300;2023-03-14T13:15:43;99332.34;;;6.86;100.00
62791;BME280;48830;53.426;10.300;2023-03-14T13:18:29;99331.50;;;6.86;100.00
62791;BME280;48830;53.426;10.300;2023-03-14T13:21:11;99335.78;;;6.91;100.00
62791;BME280;48830;53.426;10.300;2023-03-14T13:23:38;99350.38;;;7.06;100.00
62791;BME280;48830;53.426;10.300;2023-03-14T13:26:11;99355.47;;;7.06;100.00
62791;BME280;48830;53.426;10.300;2023-03-14T13:28:38;99363.13;;;7.07;100.00
62791;BME280;48830;53.426;10.300;2023-03-14T13:31:04;99370.78;;;7.01;100.00
62791;BME280;48830;53.426;10.300;2023-03-14T13:33:33;99384.19;;;6.77;100.00
62791;BME280;48830;53.426;10.300;2023-03-14T13:36:01;99392.59;;;6.63;100.00
62791;BME280;48830;53.426;10.300;2023-03-14T13:38:32;99385.81;;;6.66;100.00
62791;BME280;48830;53.426;10.300;2023-03-14T13:40:59;99390.06;;;6.66;100.00
62791;BME280;48830;53.426;10.300;2023-03-14T13:46:03;99388.44;;;6.74;100.00
62791;BME280;48830;53.426;10.300;2023-03-14T13:48:31;99398.69;;;6.80;100.00
62791;BME280;48830;53.426;10.300;2023-03-14T13:51:09;99402.34;;;7.14;100.00
62791;BME280;48830;53.426;10.300;2023-03-14T13:53:53;99405.94;;;7.39;100.00
62791;BME280;48830;53.426;10.300;2023-03-14T13:56:20;99399.16;;;7.47;97.17
62791;BME280;48830;53.426;10.300;2023-03-14T13:58:46;99400.03;;;7.52;90.23
62791;BME280;48830;53.426;10.300;2023-03-14T14:01:18;99410.19;;;7.39;77.48
62791;BME280;48830;53.426;10.300;2023-03-14T14:03:49;99416.13;;;7.36;71.59
62791;BME280;48830;53.426;10.300;2023-03-14T14:08:57;99440.06;;;7.47;65.31